createdAt,value
2018-04-27T00:01:32.812Z,8.90
2018-04-27T00:04:00.359Z,8.80
2018-04-27T00:06:27.867Z,8.90
2018-04-27T00:08:56.158Z,8.80
2018-04-27T00:11:24.431Z,8.80
2018-04-27T00:13:51.970Z,8.80
2018-04-27T00:16:19.472Z,8.80
2018-04-27T00:18:47.026Z,8.90
2018-04-27T00:21:14.541Z,8.80
2018-04-27T00:23:42.837Z,8.90
2018-04-27T00:26:10.361Z,8.90
2018-04-27T00:28:37.894Z,8.90
2018-04-27T00:31:05.411Z,8.90
2018-04-27T00:33:32.955Z,8.80
2018-04-27T00:36:00.479Z,8.60
2018-04-27T00:38:28.777Z,8.40
2018-04-27T00:40:57.054Z,8.40
2018-04-27T00:43:25.345Z,8.40
2018-04-27T00:45:53.618Z,8.40
2018-04-27T00:48:21.127Z,8.40
2018-04-27T00:50:48.658Z,8.40
2018-04-27T00:53:16.168Z,8.30
2018-04-27T00:55:43.719Z,8.20
2018-04-27T00:58:12.003Z,8.10
2018-04-27T01:00:39.532Z,8.10
2018-04-27T01:03:07.038Z,8.10
2018-04-27T01:05:34.567Z,8.10
2018-04-27T01:08:02.070Z,8.10
2018-04-27T01:10:29.599Z,8.10
2018-04-27T01:12:57.127Z,8.10
2018-04-27T01:15:24.641Z,8.10
2018-04-27T01:17:52.145Z,8.10
2018-04-27T01:20:19.677Z,8.10
2018-04-27T01:22:47.201Z,8.10
2018-04-27T01:25:14.718Z,8.00
2018-04-27T01:27:42.228Z,8.00
2018-04-27T01:30:09.772Z,8.10
2018-04-27T01:32:37.277Z,8.10
2018-04-27T01:35:04.797Z,8.00
2018-04-27T01:37:33.065Z,8.00
2018-04-27T01:40:00.590Z,8.00
2018-04-27T01:42:28.102Z,7.90
2018-04-27T01:44:55.641Z,8.00
2018-04-27T01:47:23.153Z,8.00
2018-04-27T01:49:50.677Z,7.90
2018-04-27T01:52:18.182Z,7.90
2018-04-27T01:54:45.716Z,7.90
2018-04-27T01:57:13.222Z,7.90
2018-04-27T01:59:40.763Z,7.90
2018-04-27T02:02:08.281Z,7.90
2018-04-27T02:04:36.565Z,7.90
2018-04-27T02:07:04.109Z,7.90
2018-04-27T02:09:31.616Z,7.80
2018-04-27T02:11:59.912Z,7.90
2018-04-27T02:14:28.188Z,7.90
2018-04-27T02:16:55.741Z,7.80
2018-04-27T02:19:23.247Z,7.80
2018-04-27T02:21:51.542Z,7.80
2018-04-27T02:24:19.056Z,7.80
2018-04-27T02:26:46.598Z,7.70
2018-04-27T02:29:14.098Z,7.50
2018-04-27T02:31:41.619Z,7.30
2018-04-27T02:34:09.906Z,7.20
2018-04-27T02:36:38.205Z,7.10
2018-04-27T02:39:06.490Z,7.00
2018-04-27T02:41:34.787Z,7.00
2018-04-27T02:44:02.288Z,7.00
2018-04-27T02:46:29.817Z,6.90
2018-04-27T02:48:58.081Z,6.90
2018-04-27T02:51:25.626Z,6.90
2018-04-27T02:53:53.141Z,7.00
2018-04-27T02:56:21.429Z,7.10
2018-04-27T02:58:48.946Z,7.10
2018-04-27T03:01:16.469Z,7.20
2018-04-27T03:03:43.978Z,7.30
2018-04-27T03:06:11.501Z,7.30
2018-04-27T03:08:39.019Z,7.40
2018-04-27T03:11:06.563Z,7.50
2018-04-27T03:13:34.831Z,7.60
2018-04-27T03:16:02.376Z,7.50
2018-04-27T03:18:29.882Z,7.60
2018-04-27T03:20:57.414Z,7.60
2018-04-27T03:23:24.917Z,7.50
2018-04-27T03:25:52.438Z,7.50
2018-04-27T03:28:19.949Z,7.40
2018-04-27T03:30:47.470Z,7.40
2018-04-27T03:33:14.973Z,7.40
2018-04-27T03:35:42.498Z,7.30
2018-04-27T03:38:10.766Z,7.10
2018-04-27T03:40:38.270Z,7.10
2018-04-27T03:43:05.808Z,7.10
2018-04-27T03:45:33.315Z,7.10
2018-04-27T03:48:00.847Z,7.10
2018-04-27T03:50:28.352Z,7.00
2018-04-27T03:52:56.649Z,6.90
2018-04-27T03:55:24.153Z,6.90
2018-04-27T03:57:51.682Z,6.90
2018-04-27T04:00:31.781Z,7.10
2018-04-27T04:03:11.135Z,7.10
2018-04-27T04:05:38.646Z,7.00
2018-04-27T04:08:06.170Z,7.00
2018-04-27T04:10:33.679Z,7.00
2018-04-27T04:13:01.230Z,7.00
2018-04-27T04:15:28.750Z,7.10
2018-04-27T04:17:57.048Z,7.10
2018-04-27T04:20:24.564Z,7.00
2018-04-27T04:22:52.095Z,7.10
2018-04-27T04:25:19.596Z,7.00
2018-04-27T04:27:47.184Z,7.10
2018-04-27T04:30:14.689Z,7.00
2018-04-27T04:32:43.012Z,6.90
2018-04-27T04:35:10.528Z,6.80
2018-04-27T04:37:38.058Z,6.90
2018-04-27T04:40:05.568Z,7.10
2018-04-27T04:42:33.092Z,7.50
2018-04-27T04:45:00.607Z,7.70
2018-04-27T04:47:28.164Z,8.10
2018-04-27T04:49:55.669Z,8.30
2018-04-27T04:52:23.231Z,8.60
2018-04-27T04:54:50.709Z,8.70
2018-04-27T04:57:18.245Z,9.10
2018-04-27T04:59:45.749Z,9.30
2018-04-27T05:02:13.285Z,9.20
2018-04-27T05:04:40.786Z,9.50
2018-04-27T05:07:08.331Z,9.50
2018-04-27T05:09:35.836Z,9.00
2018-04-27T05:12:03.367Z,9.30
2018-04-27T05:14:30.894Z,9.50
2018-04-27T05:16:59.213Z,9.10
2018-04-27T05:19:26.744Z,9.10
2018-04-27T05:21:54.480Z,9.20
2018-04-27T05:24:22.043Z,9.30
2018-04-27T05:26:52.223Z,9.40
2018-04-27T05:29:19.741Z,9.40
2018-04-27T05:31:47.256Z,9.20
2018-04-27T05:34:15.080Z,8.80
2018-04-27T05:36:42.598Z,8.90
2018-04-27T05:39:10.131Z,8.70
2018-04-27T05:41:37.646Z,8.60
2018-04-27T05:44:05.170Z,8.50
2018-04-27T05:46:32.672Z,8.30
2018-04-27T05:49:00.230Z,8.10
2018-04-27T05:51:27.744Z,8.10
2018-04-27T05:53:56.090Z,9.50
2018-04-27T05:56:23.607Z,9.40
2018-04-27T05:58:51.147Z,10.20
2018-04-27T06:01:18.669Z,10.70
2018-04-27T06:03:58.902Z,11.50
2018-04-27T06:06:26.428Z,11.50
2018-04-27T06:08:53.958Z,11.90
2018-04-27T06:11:21.472Z,11.40
2018-04-27T06:13:49.010Z,11.20
2018-04-27T06:16:16.521Z,10.90
2018-04-27T06:18:44.054Z,11.20
2018-04-27T06:21:11.578Z,11.30
2018-04-27T06:23:39.098Z,11.30
2018-04-27T06:26:06.630Z,10.90
2018-04-27T06:28:34.156Z,10.50
2018-04-27T06:31:01.677Z,10.20
2018-04-27T06:33:29.196Z,9.80
2018-04-27T06:35:57.493Z,10.20
2018-04-27T06:38:25.800Z,10.70
2018-04-27T06:40:53.319Z,10.70
2018-04-27T06:43:20.864Z,10.80
2018-04-27T06:45:48.366Z,11.00
2018-04-27T06:48:15.903Z,11.10
2018-04-27T06:50:43.440Z,11.00
2018-04-27T06:53:11.768Z,10.90
2018-04-27T06:55:39.284Z,10.90
2018-04-27T06:58:06.799Z,11.40
2018-04-27T07:00:34.320Z,11.70
2018-04-27T07:03:01.839Z,11.30
2018-04-27T07:05:29.367Z,11.60
2018-04-27T07:07:56.891Z,11.70
2018-04-27T07:10:24.421Z,12.10
2018-04-27T07:12:52.693Z,12.20
2018-04-27T07:15:20.226Z,12.20
2018-04-27T07:17:47.729Z,12.40
2018-04-27T07:20:15.268Z,12.80
2018-04-27T07:22:42.772Z,13.00
2018-04-27T07:25:10.319Z,13.10
2018-04-27T07:27:37.830Z,13.20
2018-04-27T07:30:05.369Z,13.00
2018-04-27T07:32:32.894Z,13.10
2018-04-27T07:35:00.430Z,12.90
2018-04-27T07:37:27.955Z,12.50
2018-04-27T07:39:55.481Z,12.60
2018-04-27T07:42:23.003Z,12.70
2018-04-27T07:44:50.538Z,13.00
2018-04-27T07:47:18.815Z,13.40
2018-04-27T07:49:52.844Z,13.40
2018-04-27T07:52:20.352Z,13.60
2018-04-27T07:54:47.894Z,13.60
2018-04-27T07:57:16.180Z,13.80
2018-04-27T07:59:47.758Z,13.80
2018-04-27T08:02:16.056Z,13.60
2018-04-27T08:04:44.361Z,13.90
2018-04-27T08:07:11.919Z,13.90
2018-04-27T08:09:39.446Z,13.80
2018-04-27T08:12:06.976Z,13.80
2018-04-27T08:14:34.505Z,14.00
2018-04-27T08:17:02.042Z,14.10
2018-04-27T08:19:29.585Z,14.10
2018-04-27T08:21:57.106Z,14.20
2018-04-27T08:24:24.665Z,14.10
2018-04-27T08:26:52.180Z,14.40
2018-04-27T08:29:21.263Z,14.80
2018-04-27T08:31:48.783Z,14.70
2018-04-27T08:34:16.322Z,15.00
2018-04-27T08:36:44.611Z,15.00
2018-04-27T08:39:12.888Z,15.20
2018-04-27T08:41:40.420Z,15.20
2018-04-27T08:44:07.946Z,15.00
2018-04-27T08:46:36.264Z,15.10
2018-04-27T08:49:03.781Z,15.10
2018-04-27T08:51:31.334Z,15.40
2018-04-27T08:53:58.922Z,15.90
2018-04-27T08:56:27.485Z,16.30
2018-04-27T08:58:55.045Z,16.30
2018-04-27T09:01:22.619Z,16.30
2018-04-27T09:03:50.136Z,16.40
2018-04-27T09:06:17.750Z,16.50
2018-04-27T09:08:45.201Z,16.30
2018-04-27T09:11:12.726Z,16.00
2018-04-27T09:13:40.229Z,16.10
2018-04-27T09:16:07.759Z,16.40
2018-04-27T09:18:35.269Z,16.70
2018-04-27T09:21:02.808Z,16.70
2018-04-27T09:23:30.319Z,16.40
2018-04-27T09:25:57.845Z,16.20
2018-04-27T09:28:25.367Z,16.60
2018-04-27T09:30:52.908Z,16.50
2018-04-27T09:33:20.434Z,16.60
2018-04-27T09:35:47.993Z,16.90
2018-04-27T09:38:16.313Z,16.70
2018-04-27T09:40:43.855Z,16.70
2018-04-27T09:43:12.121Z,16.80
2018-04-27T09:45:39.686Z,16.80
2018-04-27T09:48:07.206Z,16.60
2018-04-27T09:50:34.781Z,16.60
2018-04-27T09:53:03.348Z,17.00
2018-04-27T09:55:31.645Z,17.60
2018-04-27T09:57:59.926Z,18.00
2018-04-27T10:00:27.493Z,17.90
2018-04-27T10:02:55.029Z,18.10
2018-04-27T10:05:22.597Z,18.10
2018-04-27T10:07:50.246Z,18.40
2018-04-27T10:10:17.788Z,18.20
2018-04-27T10:12:45.314Z,18.50
2018-04-27T10:15:12.847Z,18.40
2018-04-27T10:17:41.189Z,18.10
2018-04-27T10:20:08.714Z,18.10
2018-04-27T10:22:36.252Z,18.20
2018-04-27T10:25:03.755Z,18.40
2018-04-27T10:27:32.050Z,18.20
2018-04-27T10:29:59.590Z,18.20
2018-04-27T10:32:27.216Z,18.00
2018-04-27T10:34:54.720Z,18.20
2018-04-27T10:37:22.250Z,18.50
2018-04-27T10:39:49.768Z,18.80
2018-04-27T10:42:17.323Z,18.90
2018-04-27T10:44:44.829Z,18.70
2018-04-27T10:47:12.382Z,19.00
2018-04-27T10:49:39.898Z,19.10
2018-04-27T10:52:07.466Z,19.50
2018-04-27T10:54:34.966Z,19.50
2018-04-27T10:57:02.538Z,19.20
2018-04-27T10:59:30.052Z,19.50
2018-04-27T11:01:57.590Z,19.30
2018-04-27T11:04:25.088Z,19.10
2018-04-27T11:06:52.813Z,19.10
2018-04-27T11:09:20.340Z,19.00
2018-04-27T11:11:47.925Z,19.30
2018-04-27T11:14:16.213Z,19.30
2018-04-27T11:16:43.925Z,19.30
2018-04-27T11:19:12.158Z,19.20
2018-04-27T11:21:39.719Z,19.20
2018-04-27T11:24:07.997Z,19.50
2018-04-27T11:26:35.540Z,19.40
2018-04-27T11:29:03.051Z,19.60
2018-04-27T11:31:30.574Z,19.90
2018-04-27T11:33:58.837Z,20.00
2018-04-27T11:36:26.377Z,20.00
2018-04-27T11:38:53.882Z,20.10
2018-04-27T11:41:21.492Z,19.90
2018-04-27T11:43:49.758Z,19.90
2018-04-27T11:46:18.116Z,20.10
2018-04-27T11:48:45.621Z,20.10
2018-04-27T11:51:13.913Z,19.90
2018-04-27T11:53:42.222Z,20.00
2018-04-27T11:56:09.727Z,20.00
2018-04-27T11:58:37.263Z,20.00
2018-04-27T12:01:04.776Z,20.10
2018-04-27T12:03:32.336Z,20.20
2018-04-27T12:05:59.841Z,20.30
2018-04-27T12:08:27.372Z,20.20
2018-04-27T12:10:54.895Z,20.30
2018-04-27T12:13:23.186Z,20.60
2018-04-27T12:15:51.449Z,20.80
2018-04-27T12:18:19.042Z,20.80
2018-04-27T12:20:47.345Z,20.40
2018-04-27T12:25:49.622Z,20.60
2018-04-27T12:28:17.154Z,20.30
2018-04-27T12:30:44.664Z,20.60
2018-04-27T12:33:12.202Z,20.60
2018-04-27T12:35:39.720Z,20.70
2018-04-27T12:38:07.258Z,20.60
2018-04-27T12:40:34.770Z,20.80
2018-04-27T12:43:03.065Z,20.30
2018-04-27T12:45:31.346Z,20.40
2018-04-27T12:47:59.638Z,20.80
2018-04-27T12:50:27.913Z,20.70
2018-04-27T12:52:55.458Z,20.70
2018-04-27T12:55:22.973Z,21.00
2018-04-27T12:57:50.528Z,20.90
2018-04-27T13:00:18.042Z,21.10
2018-04-27T13:02:45.578Z,21.20
2018-04-27T13:05:13.099Z,21.10
2018-04-27T13:07:40.625Z,21.10
2018-04-27T13:10:08.897Z,21.20
2018-04-27T13:12:36.447Z,21.20
2018-04-27T13:15:03.948Z,21.20
2018-04-27T13:17:31.489Z,21.40
2018-04-27T13:19:59.043Z,21.50
2018-04-27T13:22:26.604Z,21.30
2018-04-27T13:24:54.138Z,21.50
2018-04-27T13:27:21.700Z,21.50
2018-04-27T13:29:49.216Z,21.70
2018-04-27T13:32:16.804Z,21.70
2018-04-27T13:34:44.331Z,21.60
2018-04-27T13:37:11.948Z,21.80
2018-04-27T13:39:39.474Z,21.90
2018-04-27T13:42:06.997Z,21.60
2018-04-27T13:44:34.567Z,21.50
2018-04-27T13:47:02.101Z,21.40
2018-04-27T13:49:30.402Z,21.50
2018-04-27T13:51:57.938Z,21.50
2018-04-27T13:54:25.508Z,21.20
2018-04-27T13:56:53.016Z,21.60
2018-04-27T13:59:20.549Z,21.20
2018-04-27T14:01:48.072Z,21.60
2018-04-27T14:04:15.722Z,22.00
2018-04-27T14:06:44.030Z,22.30
2018-04-27T14:09:11.674Z,22.30
2018-04-27T14:11:39.125Z,22.20
2018-04-27T14:14:06.656Z,21.80
2018-04-27T14:16:34.169Z,21.60
2018-04-27T14:19:01.723Z,22.00
2018-04-27T14:21:30.030Z,22.20
2018-04-27T14:23:57.670Z,22.20
2018-04-27T14:26:25.207Z,22.10
2018-04-27T14:28:53.492Z,22.10
2018-04-27T14:31:21.775Z,22.50
2018-04-27T14:33:50.693Z,22.60
2018-04-27T14:36:18.357Z,22.60
2018-04-27T14:38:46.669Z,22.30
2018-04-27T14:41:14.681Z,22.30
2018-04-27T14:43:42.226Z,22.50
2018-04-27T14:46:09.749Z,22.40
2018-04-27T14:48:37.287Z,22.40
2018-04-27T14:51:04.815Z,22.60
2018-04-27T14:53:33.116Z,22.20
2018-04-27T14:56:00.643Z,22.20
2018-04-27T14:58:28.185Z,22.30
2018-04-27T15:00:55.694Z,22.60
2018-04-27T15:03:23.224Z,22.60
2018-04-27T15:05:50.738Z,22.50
2018-04-27T15:08:18.278Z,22.60
2018-04-27T15:10:45.799Z,22.50
2018-04-27T15:13:13.520Z,22.40
2018-04-27T15:15:41.029Z,22.30
2018-04-27T15:18:09.672Z,22.00
2018-04-27T15:20:37.212Z,21.80
2018-04-27T15:23:04.741Z,21.60
2018-04-27T15:25:32.270Z,21.60
2018-04-27T15:28:00.552Z,21.80
2018-04-27T15:30:28.090Z,21.80
2018-04-27T15:32:55.611Z,21.80
2018-04-27T15:35:23.907Z,21.90
2018-04-27T15:37:51.423Z,21.90
2018-04-27T15:40:18.950Z,22.00
2018-04-27T15:42:46.473Z,22.00
2018-04-27T15:45:14.006Z,22.00
2018-04-27T15:47:41.513Z,22.10
2018-04-27T15:50:09.058Z,22.40
2018-04-27T15:52:37.444Z,22.50
2018-04-27T15:55:04.980Z,22.50
2018-04-27T15:57:33.251Z,22.30
2018-04-27T16:00:00.780Z,22.30
2018-04-27T16:02:28.312Z,22.20
2018-04-27T16:04:56.629Z,22.30
2018-04-27T16:07:24.156Z,22.30
2018-04-27T16:09:51.708Z,22.50
2018-04-27T16:12:19.278Z,22.40
2018-04-27T16:14:46.824Z,22.40
2018-04-27T16:17:14.337Z,22.40
2018-04-27T16:19:43.474Z,22.30
2018-04-27T16:22:11.761Z,22.20
2018-04-27T16:24:40.084Z,22.20
2018-04-27T16:27:07.604Z,22.20
2018-04-27T16:29:35.149Z,22.40
2018-04-27T16:32:02.667Z,22.30
2018-04-27T16:34:30.967Z,22.50
2018-04-27T16:36:59.241Z,22.40
2018-04-27T16:39:26.770Z,22.40
2018-04-27T16:41:54.361Z,22.50
2018-04-27T16:44:22.578Z,22.60
2018-04-27T16:46:50.860Z,22.60
2018-04-27T16:49:18.410Z,22.60
2018-04-27T16:51:45.920Z,22.50
2018-04-27T16:54:14.216Z,22.20
2018-04-27T16:56:41.750Z,22.20
2018-04-27T16:59:09.253Z,22.10
2018-04-27T17:01:36.789Z,22.10
2018-04-27T17:04:04.296Z,22.20
2018-04-27T17:06:32.593Z,22.30
2018-04-27T17:09:00.102Z,22.20
2018-04-27T17:11:27.624Z,22.40
2018-04-27T17:13:55.892Z,22.10
2018-04-27T17:16:23.437Z,22.10
2018-04-27T17:18:50.952Z,22.00
2018-04-27T17:21:19.267Z,22.00
2018-04-27T17:23:46.772Z,22.00
2018-04-27T17:26:14.310Z,21.90
2018-04-27T17:28:41.825Z,21.80
2018-04-27T17:31:09.369Z,21.80
2018-04-27T17:33:36.869Z,21.70
2018-04-27T17:36:04.393Z,21.60
2018-04-27T17:38:31.906Z,21.60
2018-04-27T17:40:59.439Z,21.50
2018-04-27T17:43:27.271Z,21.40
2018-04-27T17:45:54.766Z,21.30
2018-04-27T17:48:23.040Z,21.10
2018-04-27T17:50:50.574Z,21.10
2018-04-27T17:53:18.099Z,21.10
2018-04-27T17:55:46.435Z,21.00
2018-04-27T17:58:13.926Z,20.90
2018-04-27T18:00:41.450Z,20.90
2018-04-27T18:03:08.953Z,21.00
2018-04-27T18:05:36.493Z,21.00
2018-04-27T18:08:03.997Z,20.80
2018-04-27T18:10:31.521Z,20.70
2018-04-27T18:12:59.785Z,20.60
2018-04-27T18:15:27.321Z,20.60
2018-04-27T18:17:54.815Z,20.50
2018-04-27T18:20:22.366Z,20.40
2018-04-27T18:22:49.974Z,20.30
2018-04-27T18:25:17.459Z,20.30
2018-04-27T18:27:45.768Z,20.20
2018-04-27T18:30:13.277Z,20.20
2018-04-27T18:32:40.822Z,20.00
2018-04-27T18:35:08.354Z,19.80
2018-04-27T18:37:35.884Z,19.60
2018-04-27T18:40:03.394Z,19.40
2018-04-27T18:42:30.996Z,19.40
2018-04-27T18:44:58.456Z,19.30
2018-04-27T18:47:26.747Z,19.00
2018-04-27T18:49:55.017Z,19.00
2018-04-27T18:52:22.542Z,18.90
2018-04-27T18:54:50.101Z,18.90
2018-04-27T18:57:17.658Z,18.90
2018-04-27T18:59:46.739Z,18.80
2018-04-27T19:02:14.262Z,18.70
2018-04-27T19:04:41.770Z,18.70
2018-04-27T19:07:09.309Z,18.60
2018-04-27T19:09:36.805Z,18.50
2018-04-27T19:12:04.334Z,18.50
2018-04-27T19:14:31.839Z,18.40
2018-04-27T19:16:59.364Z,18.30
2018-04-27T19:19:27.640Z,18.30
2018-04-27T19:21:55.163Z,18.30
2018-04-27T19:24:22.664Z,18.20
2018-04-27T19:26:50.198Z,18.20
2018-04-27T19:29:17.721Z,18.10
2018-04-27T19:31:45.245Z,18.10
2018-04-27T19:34:12.748Z,18.00
2018-04-27T19:36:40.269Z,18.00
2018-04-27T19:39:07.776Z,18.00
2018-04-27T19:41:35.296Z,17.90
2018-04-27T19:44:03.580Z,17.90
2018-04-27T19:46:31.875Z,17.90
2018-04-27T19:49:00.144Z,17.80
2018-04-27T19:51:27.645Z,17.80
2018-04-27T19:53:55.174Z,17.70
2018-04-27T19:56:22.679Z,17.80
2018-04-27T19:58:51.020Z,17.50
2018-04-27T20:01:19.302Z,17.50
2018-04-27T20:03:46.836Z,17.50
2018-04-27T20:06:14.354Z,17.50
2018-04-27T20:08:41.959Z,17.50
2018-04-27T20:11:09.522Z,17.50
2018-04-27T20:13:39.762Z,17.50
2018-04-27T20:16:07.278Z,17.40
2018-04-27T20:18:34.861Z,17.40
2018-04-27T20:21:02.319Z,17.30
2018-04-27T20:23:29.842Z,17.30
2018-04-27T20:25:58.948Z,17.20
2018-04-27T20:28:29.198Z,17.20
2018-04-27T20:30:57.473Z,17.10
2018-04-27T20:33:24.995Z,17.10
2018-04-27T20:35:58.141Z,17.10
2018-04-27T20:38:30.332Z,17.10
2018-04-27T20:40:57.835Z,17.20
2018-04-27T20:43:27.460Z,17.10
2018-04-27T20:45:54.980Z,17.30
2018-04-27T20:48:24.458Z,17.30
2018-04-27T20:50:56.494Z,17.30
2018-04-27T20:53:24.026Z,17.20
2018-04-27T20:55:52.249Z,17.20
2018-04-27T20:58:19.781Z,17.10
2018-04-27T21:00:47.305Z,17.10
2018-04-27T21:03:15.611Z,17.10
2018-04-27T21:05:43.165Z,17.00
2018-04-27T21:08:11.457Z,16.90
2018-04-27T21:10:40.455Z,16.90
2018-04-27T21:13:08.270Z,16.90
2018-04-27T21:15:35.768Z,16.80
2018-04-27T21:18:06.090Z,16.80
2018-04-27T21:20:33.612Z,16.80
2018-04-27T21:23:01.144Z,16.80
2018-04-27T21:25:37.306Z,16.70
2018-04-27T21:28:10.587Z,16.80
2018-04-27T21:30:38.883Z,16.70
2018-04-27T21:33:06.570Z,16.70
2018-04-27T21:35:36.678Z,16.70
2018-04-27T21:38:10.860Z,16.60
2018-04-27T21:40:38.361Z,16.60
2018-04-27T21:43:05.922Z,16.60
2018-04-27T21:45:33.432Z,16.50
2018-04-27T21:48:01.717Z,16.40
2018-04-27T21:50:30.000Z,16.30
2018-04-27T21:52:58.306Z,16.20
2018-04-27T21:55:25.802Z,16.20
2018-04-27T21:58:09.005Z,16.30
2018-04-27T22:00:37.280Z,16.10
2018-04-27T22:03:11.424Z,16.10
2018-04-27T22:05:49.211Z,16.20
2018-04-27T22:08:41.240Z,16.10
2018-04-27T22:14:21.899Z,16.10
2018-04-27T22:19:59.945Z,16.00
2018-04-27T22:28:35.037Z,15.80
2018-04-27T22:31:12.084Z,15.70
2018-04-27T22:33:52.018Z,15.70
2018-04-27T22:40:37.066Z,15.70
2018-04-27T22:43:33.033Z,15.80
2018-04-27T22:46:12.647Z,15.80
2018-04-27T22:52:01.238Z,15.80
2018-04-27T22:54:31.895Z,15.80
2018-04-27T22:57:32.277Z,15.90
2018-04-27T23:03:14.618Z,15.70
2018-04-27T23:05:42.261Z,15.70
2018-04-27T23:08:15.885Z,15.70
2018-04-27T23:14:31.368Z,15.50
2018-04-27T23:17:12.400Z,15.50
2018-04-27T23:19:48.223Z,15.50
2018-04-27T23:25:33.517Z,15.40
2018-04-27T23:28:01.199Z,15.40
2018-04-27T23:30:33.772Z,15.30
2018-04-27T23:35:52.870Z,15.30
2018-04-27T23:38:28.836Z,15.30
2018-04-27T23:41:08.465Z,15.20
2018-04-27T23:43:46.123Z,15.10
2018-04-27T23:49:26.191Z,15.10
2018-04-27T23:51:54.755Z,15.10
2018-04-27T23:57:35.061Z,15.10
